Time;durP1;ratioP1;P1;durP2;ratioP2;P2;SDS_P1;SDS_P2;PMS_P1;PMS_P2;Temp;Humidity;BMP_temperature;BMP_pressure;BME280_temperature;BME280_humidity;BME280_pressure;Samples;Min_cycle;Max_cycle;Signal;HPM_P1;HPM_P2
2022/03/17 00:01:52;;;;;;;36.90;26.70;;;10.80;99.90;;;;;;5090415;28;20440;-71
2022/03/17 00:04:38;;;;;;;33.83;27.30;;;10.80;99.90;;;;;;5085935;28;20414;-70
2022/03/17 00:07:25;;;;;;;36.27;27.00;;;10.90;99.90;;;;;;5095043;28;20563;-70
2022/03/17 00:10:13;;;;;;;38.20;28.37;;;10.90;99.90;;;;;;5090194;28;22760;-70
2022/03/17 00:12:59;;;;;;;32.13;25.40;;;10.90;99.90;;;;;;5091080;28;20458;-71
2022/03/17 00:15:45;;;;;;;34.50;27.80;;;10.90;99.90;;;;;;5087351;28;20469;-71
2022/03/17 00:18:31;;;;;;;35.03;27.57;;;11.00;99.90;;;;;;5098811;28;20765;-70
2022/03/17 00:21:16;;;;;;;34.03;27.97;;;11.00;99.90;;;;;;5091500;28;20445;-70
2022/03/17 00:24:04;;;;;;;33.20;27.47;;;11.00;99.90;;;;;;5090231;28;20436;-71
2022/03/17 00:26:49;;;;;;;37.83;27.60;;;10.90;99.90;;;;;;5089571;28;20600;-71
2022/03/17 00:29:36;;;;;;;34.90;27.03;;;10.80;99.90;;;;;;5083917;28;20448;-70
2022/03/17 00:32:23;;;;;;;33.80;26.90;;;10.80;99.90;;;;;;5090498;28;20437;-71
2022/03/17 00:38:15;;;;;;;43.67;27.03;;;10.90;99.90;;;;;;5087575;28;20457;-71
2022/03/17 00:41:02;;;;;;;33.07;26.90;;;10.80;99.90;;;;;;5090053;28;20516;-71
2022/03/17 00:43:48;;;;;;;31.50;26.90;;;10.80;99.90;;;;;;5089618;28;20441;-71
2022/03/17 00:46:34;;;;;;;35.83;27.80;;;10.80;99.90;;;;;;5092173;28;20989;-71
2022/03/17 00:49:19;;;;;;;37.87;28.43;;;10.80;99.90;;;;;;5086312;28;20443;-71
2022/03/17 00:52:09;;;;;;;34.30;26.20;;;10.80;99.90;;;;;;5087218;28;20417;-71
2022/03/17 00:54:55;;;;;;;33.37;26.07;;;10.70;99.90;;;;;;5078050;28;20476;-70
2022/03/17 00:57:43;;;;;;;33.40;26.67;;;10.70;99.90;;;;;;5085339;28;20962;-70
2022/03/17 01:00:28;;;;;;;32.77;25.83;;;10.70;99.90;;;;;;5085506;28;20477;-71
2022/03/17 01:03:14;;;;;;;31.37;25.03;;;10.70;99.90;;;;;;5085964;28;20447;-71
2022/03/17 01:06:00;;;;;;;34.73;27.10;;;10.60;99.90;;;;;;5083805;28;20510;-71
2022/03/17 01:08:45;;;;;;;35.17;28.40;;;10.60;99.90;;;;;;5093070;28;20448;-71
2022/03/17 01:11:31;;;;;;;36.80;28.30;;;10.50;99.90;;;;;;5086992;28;20407;-71
2022/03/17 01:14:18;;;;;;;33.50;27.40;;;10.50;99.90;;;;;;5084632;28;20470;-71
2022/03/17 01:17:04;;;;;;;40.20;28.70;;;10.40;99.90;;;;;;5086890;28;20438;-71
2022/03/17 01:19:50;;;;;;;35.17;28.33;;;10.50;99.90;;;;;;5097864;28;20422;-71
2022/03/17 01:22:36;;;;;;;35.40;29.07;;;10.40;99.90;;;;;;5087696;28;20807;-71
2022/03/17 01:25:22;;;;;;;35.33;29.20;;;10.40;99.90;;;;;;5096965;28;20463;-71
2022/03/17 01:28:07;;;;;;;39.67;28.30;;;10.30;99.90;;;;;;5087868;28;20544;-71
2022/03/17 01:30:54;;;;;;;36.07;27.70;;;10.30;99.90;;;;;;5087243;28;20429;-71
2022/03/17 01:33:40;;;;;;;37.13;28.50;;;10.40;99.90;;;;;;5082360;28;20817;-70
2022/03/17 01:36:26;;;;;;;38.60;28.43;;;10.40;99.90;;;;;;5085074;28;20444;-71
2022/03/17 01:39:11;;;;;;;36.37;28.37;;;10.30;99.90;;;;;;5087557;28;20561;-70
2022/03/17 01:41:58;;;;;;;38.03;28.50;;;10.20;99.90;;;;;;5086452;28;20446;-70
2022/03/17 01:44:43;;;;;;;35.30;28.47;;;10.30;99.90;;;;;;5083662;28;20605;-71
2022/03/17 01:47:31;;;;;;;37.53;29.57;;;10.30;99.90;;;;;;5086662;28;20834;-71
2022/03/17 01:50:18;;;;;;;34.90;28.03;;;10.40;99.90;;;;;;5082562;28;20759;-72
2022/03/17 01:53:04;;;;;;;35.67;28.17;;;10.50;99.90;;;;;;5088295;28;20501;-71
2022/03/17 01:55:50;;;;;;;40.70;30.43;;;10.50;99.90;;;;;;5082303;28;21007;-72
2022/03/17 01:58:36;;;;;;;35.73;27.83;;;10.50;99.90;;;;;;5087037;28;20444;-71
2022/03/17 02:01:22;;;;;;;37.90;29.70;;;10.40;99.90;;;;;;5083634;28;20448;-72
2022/03/17 02:04:09;;;;;;;36.90;29.57;;;10.40;99.90;;;;;;5080327;28;20538;-71
2022/03/17 02:06:55;;;;;;;40.83;29.50;;;10.40;99.90;;;;;;5087064;28;20475;-72
2022/03/17 02:09:41;;;;;;;40.17;29.80;;;10.40;99.90;;;;;;5085841;28;20421;-71
2022/03/17 02:15:32;;;;;;;36.43;27.23;;;10.60;99.90;;;;;;5087029;28;20522;-72
2022/03/17 02:18:17;;;;;;;39.60;29.50;;;10.60;99.90;;;;;;5083873;28;20434;-71
2022/03/17 02:21:05;;;;;;;36.97;28.63;;;10.60;99.90;;;;;;5086663;28;20436;-72
2022/03/17 02:26:58;;;;;;;35.30;28.00;;;10.70;99.90;;;;;;5087814;28;20443;-72
2022/03/17 02:29:44;;;;;;;36.93;31.03;;;10.70;99.90;;;;;;5089988;28;20414;-72
2022/03/17 02:32:30;;;;;;;39.27;29.47;;;10.60;99.90;;;;;;5089157;28;20854;-71
2022/03/17 02:35:18;;;;;;;37.33;30.20;;;10.70;99.90;;;;;;5091154;28;20469;-72
2022/03/17 02:38:04;;;;;;;38.70;28.50;;;10.80;99.90;;;;;;5087480;28;20418;-71
2022/03/17 02:40:52;;;;;;;36.60;27.63;;;10.80;99.90;;;;;;5087423;28;20422;-71
2022/03/17 02:43:38;;;;;;;35.50;28.13;;;10.80;99.90;;;;;;5088457;28;20799;-71
2022/03/17 02:46:28;;;;;;;40.47;29.03;;;10.80;99.90;;;;;;5090176;28;20874;-71
2022/03/17 02:49:15;;;;;;;35.23;27.50;;;10.80;99.90;;;;;;5086344;28;20414;-72
2022/03/17 02:52:01;;;;;;;37.47;27.23;;;10.80;99.90;;;;;;5091796;28;20409;-72
2022/03/17 02:54:46;;;;;;;34.37;27.10;;;10.80;99.90;;;;;;5086393;28;20441;-72
2022/03/17 02:57:33;;;;;;;31.33;26.73;;;10.80;99.90;;;;;;5091836;28;20419;-71
2022/03/17 03:00:19;;;;;;;32.87;27.30;;;10.60;99.90;;;;;;5086844;28;20437;-71
2022/03/17 03:03:06;;;;;;;37.43;26.07;;;10.60;99.90;;;;;;5084358;28;20448;-71
2022/03/17 03:05:51;;;;;;;34.47;27.33;;;10.70;99.90;;;;;;5093922;28;20464;-72
2022/03/17 03:08:37;;;;;;;37.50;27.43;;;10.60;99.90;;;;;;5089055;28;20964;-72
2022/03/17 03:11:23;;;;;;;35.43;27.43;;;10.70;99.90;;;;;;5087504;28;20931;-72
2022/03/17 03:14:10;;;;;;;36.20;27.07;;;10.70;99.90;;;;;;5089854;28;20964;-72
2022/03/17 03:16:56;;;;;;;36.27;27.43;;;10.70;99.90;;;;;;5085628;28;20435;-72
2022/03/17 03:19:42;;;;;;;37.43;28.10;;;10.60;99.90;;;;;;5086654;28;20418;-72
2022/03/17 03:22:29;;;;;;;30.90;25.40;;;10.60;99.90;;;;;;5084107;28;20428;-71
2022/03/17 03:25:14;;;;;;;37.47;27.77;;;10.50;99.90;;;;;;5094880;28;20492;-72
2022/03/17 03:28:05;;;;;;;39.70;27.80;;;10.40;99.90;;;;;;5090016;28;20428;-71
2022/03/17 03:30:54;;;;;;;34.23;27.30;;;10.30;99.90;;;;;;5085450;28;20455;-71
2022/03/17 03:33:40;;;;;;;38.50;28.90;;;10.30;99.90;;;;;;5079150;28;20506;-71
2022/03/17 03:39:29;;;;;;;37.77;27.67;;;10.30;99.90;;;;;;5089057;28;20503;-71
2022/03/17 03:42:15;;;;;;;36.33;26.43;;;10.30;99.90;;;;;;5084820;28;20510;-71
2022/03/17 03:45:00;;;;;;;36.67;27.53;;;10.20;99.90;;;;;;5086920;28;20692;-72
2022/03/17 03:47:48;;;;;;;34.97;27.13;;;10.20;99.90;;;;;;5083765;28;20553;-72
2022/03/17 03:50:34;;;;;;;40.67;27.60;;;10.20;99.90;;;;;;5085230;28;20424;-71
2022/03/17 03:53:19;;;;;;;33.30;27.23;;;10.10;99.90;;;;;;5081586;28;20430;-71
2022/03/17 03:56:05;;;;;;;35.47;26.90;;;10.20;99.90;;;;;;5083497;28;20437;-71
2022/03/17 03:58:51;;;;;;;35.47;27.07;;;10.20;99.90;;;;;;5089960;28;21072;-72
2022/03/17 04:01:36;;;;;;;33.87;27.67;;;10.10;99.90;;;;;;5084525;28;20583;-72
2022/03/17 04:04:24;;;;;;;35.47;27.63;;;10.10;99.90;;;;;;5092283;28;20828;-71
2022/03/17 04:07:11;;;;;;;34.97;27.83;;;10.20;99.90;;;;;;5088838;28;20446;-71
2022/03/17 04:09:57;;;;;;;36.03;27.60;;;10.20;99.90;;;;;;5086999;28;20455;-72
2022/03/17 04:12:42;;;;;;;34.67;26.77;;;10.20;99.90;;;;;;5087241;28;20442;-72
2022/03/17 04:15:28;;;;;;;39.13;28.37;;;10.10;99.90;;;;;;5083308;28;20628;-72
2022/03/17 04:18:14;;;;;;;34.37;27.57;;;10.10;99.90;;;;;;5097704;28;20526;-71
2022/03/17 04:21:01;;;;;;;35.23;27.73;;;10.10;99.90;;;;;;5097128;28;20756;-71
2022/03/17 04:23:47;;;;;;;34.87;27.17;;;10.00;99.90;;;;;;5089550;28;20445;-72
2022/03/17 04:26:33;;;;;;;30.90;26.20;;;10.10;99.90;;;;;;5091341;28;20491;-72
2022/03/17 04:29:18;;;;;;;38.23;26.90;;;10.10;99.90;;;;;;5084396;28;20435;-72
2022/03/17 04:32:04;;;;;;;33.57;25.27;;;10.20;99.90;;;;;;5085448;28;20495;-71
2022/03/17 04:34:50;;;;;;;34.67;26.50;;;10.10;99.90;;;;;;5088126;28;20532;-72
2022/03/17 04:37:37;;;;;;;36.17;26.93;;;10.20;99.90;;;;;;5088728;28;20528;-72
2022/03/17 04:40:23;;;;;;;33.77;26.37;;;10.30;99.90;;;;;;5086866;28;20928;-71
2022/03/17 04:43:09;;;;;;;31.97;25.47;;;10.30;99.90;;;;;;5085016;28;20451;-71
2022/03/17 04:45:55;;;;;;;30.80;25.03;;;10.20;99.90;;;;;;5089110;28;20495;-72
2022/03/17 04:48:41;;;;;;;34.33;24.83;;;10.20;99.90;;;;;;5087234;28;20420;-71
2022/03/17 04:51:26;;;;;;;37.73;25.30;;;10.20;99.90;;;;;;5081298;28;20962;-71
2022/03/17 04:54:13;;;;;;;33.77;25.43;;;10.20;99.90;;;;;;5083849;28;20474;-71
2022/03/17 04:56:59;;;;;;;34.03;25.30;;;10.20;99.90;;;;;;5085378;28;20819;-71
2022/03/17 04:59:45;;;;;;;31.77;24.73;;;10.10;99.90;;;;;;5089371;28;20468;-71
2022/03/17 05:02:30;;;;;;;33.23;24.93;;;10.00;99.90;;;;;;5082442;28;20498;-71
2022/03/17 05:05:16;;;;;;;33.83;25.50;;;10.10;99.90;;;;;;5085314;28;20678;-72
2022/03/17 05:08:02;;;;;;;33.00;24.50;;;10.10;99.90;;;;;;5086674;28;20422;-72
2022/03/17 05:10:52;;;;;;;31.50;25.27;;;10.10;99.90;;;;;;5082071;28;20565;-72
2022/03/17 05:13:39;;;;;;;34.90;25.00;;;10.10;99.90;;;;;;5086319;28;20578;-72
2022/03/17 05:16:24;;;;;;;32.10;25.87;;;10.20;99.90;;;;;;5084450;28;20437;-71
2022/03/17 05:19:10;;;;;;;33.73;26.43;;;10.10;99.90;;;;;;5084306;28;20437;-72
2022/03/17 05:21:56;;;;;;;33.27;24.70;;;9.90;99.90;;;;;;5088592;28;20420;-72
2022/03/17 05:24:42;;;;;;;31.40;24.67;;;9.90;99.90;;;;;;5087595;28;22567;-72
2022/03/17 05:27:30;;;;;;;33.80;26.00;;;9.90;99.90;;;;;;5083401;28;20805;-72
2022/03/17 05:30:17;;;;;;;33.63;24.30;;;10.00;99.90;;;;;;5083521;28;20455;-71
2022/03/17 05:33:03;;;;;;;32.30;26.27;;;10.00;99.90;;;;;;5081528;28;20827;-71
2022/03/17 05:35:49;;;;;;;35.37;25.70;;;9.90;99.90;;;;;;5082742;28;20447;-72
2022/03/17 05:38:35;;;;;;;33.97;25.13;;;10.00;99.90;;;;;;5084200;28;20454;-71
2022/03/17 05:41:20;;;;;;;33.43;25.30;;;10.00;99.90;;;;;;5080824;28;20522;-71
2022/03/17 05:44:08;;;;;;;31.70;24.33;;;10.00;99.90;;;;;;5088063;28;20464;-71
2022/03/17 05:46:54;;;;;;;31.80;25.17;;;9.90;99.90;;;;;;5085486;28;20496;-71
2022/03/17 05:49:40;;;;;;;32.13;25.27;;;9.80;99.90;;;;;;5084571;28;20890;-71
2022/03/17 05:52:26;;;;;;;31.00;24.63;;;9.70;99.90;;;;;;5084635;28;20452;-72
2022/03/17 05:55:13;;;;;;;35.20;26.13;;;9.70;99.90;;;;;;5083469;28;20467;-71
2022/03/17 05:57:59;;;;;;;31.43;24.50;;;9.70;99.90;;;;;;5083639;28;20463;-71
2022/03/17 06:00:46;;;;;;;31.93;24.60;;;9.80;99.90;;;;;;5079523;28;20438;-71
2022/03/17 06:03:32;;;;;;;33.67;25.20;;;9.70;99.90;;;;;;5087711;28;20448;-72
2022/03/17 06:06:18;;;;;;;38.53;27.47;;;9.70;99.90;;;;;;5087524;28;20551;-71
2022/03/17 06:09:04;;;;;;;33.93;25.87;;;9.70;99.90;;;;;;5088219;28;20942;-71
2022/03/17 06:11:50;;;;;;;34.33;25.63;;;9.70;99.90;;;;;;5084016;28;20452;-71
2022/03/17 06:14:36;;;;;;;34.13;25.20;;;9.80;99.90;;;;;;5082750;28;20442;-71
2022/03/17 06:17:23;;;;;;;32.40;24.20;;;9.80;99.90;;;;;;5086428;28;20440;-72
2022/03/17 06:20:11;;;;;;;34.50;25.27;;;9.90;99.90;;;;;;5083297;28;20458;-71
2022/03/17 06:22:59;;;;;;;30.03;25.07;;;9.90;99.90;;;;;;5087521;28;20862;-71
2022/03/17 06:25:45;;;;;;;40.90;24.97;;;9.90;99.90;;;;;;5089079;28;20893;-72
2022/03/17 06:28:31;;;;;;;34.17;24.57;;;9.90;99.90;;;;;;5084602;28;20562;-72
2022/03/17 06:31:17;;;;;;;38.67;26.90;;;9.90;99.90;;;;;;5084111;28;20537;-71
2022/03/17 06:34:06;;;;;;;32.60;23.73;;;9.90;99.90;;;;;;5084394;28;20476;-71
2022/03/17 06:36:52;;;;;;;38.97;25.47;;;9.80;99.90;;;;;;5086725;28;20929;-72
2022/03/17 06:39:38;;;;;;;33.23;25.67;;;9.80;99.90;;;;;;5078900;28;21042;-71
2022/03/17 06:42:23;;;;;;;32.00;24.80;;;9.80;99.90;;;;;;5084972;28;20490;-71
2022/03/17 06:45:10;;;;;;;35.60;25.90;;;9.80;99.90;;;;;;5080992;28;20441;-71
2022/03/17 06:47:56;;;;;;;32.80;26.17;;;9.80;99.90;;;;;;5087794;28;20839;-72
2022/03/17 06:50:43;;;;;;;34.30;24.80;;;9.90;99.90;;;;;;5082088;28;21331;-72
2022/03/17 06:53:29;;;;;;;30.97;23.57;;;10.00;99.90;;;;;;5083326;28;20427;-71
2022/03/17 06:56:15;;;;;;;36.83;26.17;;;9.90;99.90;;;;;;5081686;28;20482;-72
2022/03/17 06:59:00;;;;;;;31.33;24.70;;;10.00;99.90;;;;;;5080647;28;20452;-72
2022/03/17 07:01:46;;;;;;;32.63;25.83;;;10.00;99.90;;;;;;5087903;28;20448;-72
2022/03/17 07:04:32;;;;;;;27.57;23.03;;;10.10;99.90;;;;;;5090374;28;20406;-71
2022/03/17 07:07:19;;;;;;;31.07;23.43;;;10.10;99.90;;;;;;5085904;28;20423;-72
2022/03/17 07:10:06;;;;;;;30.70;24.27;;;10.20;99.90;;;;;;5081126;28;20629;-71
2022/03/17 07:12:52;;;;;;;30.00;23.60;;;10.20;99.90;;;;;;5088697;28;20517;-72
2022/03/17 07:15:38;;;;;;;37.70;25.70;;;10.30;99.90;;;;;;5084136;28;20475;-72
2022/03/17 07:18:23;;;;;;;35.30;26.23;;;10.30;99.90;;;;;;5083379;28;20439;-71
2022/03/17 07:21:08;;;;;;;33.10;24.70;;;10.40;99.90;;;;;;5086760;28;20421;-72
2022/03/17 07:23:56;;;;;;;32.83;23.20;;;10.40;99.90;;;;;;5086820;28;20460;-71
2022/03/17 07:26:42;;;;;;;30.70;24.17;;;10.50;99.90;;;;;;5086152;28;20433;-71
2022/03/17 07:29:28;;;;;;;34.00;23.53;;;10.50;99.90;;;;;;5083316;28;20431;-71
2022/03/17 07:32:14;;;;;;;31.30;24.40;;;10.60;99.90;;;;;;5085120;28;20819;-70
2022/03/17 07:35:00;;;;;;;44.07;25.90;;;10.70;99.90;;;;;;5089710;28;20834;-71
2022/03/17 07:37:46;;;;;;;38.20;24.30;;;10.80;99.90;;;;;;5086031;28;20574;-70
2022/03/17 07:40:33;;;;;;;33.30;24.67;;;10.90;99.90;;;;;;5086720;28;20417;-71
2022/03/17 07:43:19;;;;;;;33.97;25.33;;;10.90;99.90;;;;;;5090537;28;20819;-71
2022/03/17 07:46:05;;;;;;;33.70;23.50;;;10.90;99.90;;;;;;5087703;28;20486;-71
2022/03/17 07:48:51;;;;;;;32.00;25.40;;;10.90;99.90;;;;;;5079234;28;20493;-71
2022/03/17 07:51:39;;;;;;;31.07;25.20;;;10.90;99.90;;;;;;5083927;22;20477;-72
2022/03/17 07:54:24;;;;;;;35.37;26.63;;;10.90;99.90;;;;;;5063521;28;20790;-72
2022/03/17 07:57:12;;;;;;;31.17;25.03;;;10.90;99.90;;;;;;5070519;28;20446;-72
2022/03/17 07:59:59;;;;;;;32.13;25.80;;;10.90;99.90;;;;;;5072781;28;20409;-73
2022/03/17 08:02:45;;;;;;;35.57;25.97;;;11.10;99.90;;;;;;5077554;28;20481;-72
2022/03/17 08:05:31;;;;;;;31.73;23.53;;;11.10;99.90;;;;;;5061821;28;20420;-72
2022/03/17 08:08:17;;;;;;;32.33;25.80;;;11.10;99.90;;;;;;5070002;28;20462;-72
2022/03/17 08:11:03;;;;;;;40.40;28.60;;;11.20;99.90;;;;;;5068268;28;20536;-71
2022/03/17 08:13:50;;;;;;;35.33;26.47;;;11.20;99.90;;;;;;5067304;28;20515;-72
2022/03/17 08:16:35;;;;;;;36.00;27.27;;;11.30;99.90;;;;;;5065201;28;20493;-72
2022/03/17 08:19:22;;;;;;;38.07;26.23;;;11.40;99.90;;;;;;5063439;28;20449;-72
2022/03/17 08:22:08;;;;;;;36.33;26.40;;;11.40;99.90;;;;;;5069525;28;20486;-72
2022/03/17 08:24:53;;;;;;;33.33;26.80;;;11.40;99.90;;;;;;5070727;28;20435;-72
2022/03/17 08:27:40;;;;;;;37.37;28.13;;;11.40;99.90;;;;;;5068442;28;20977;-72
2022/03/17 08:30:27;;;;;;;35.60;25.67;;;11.50;99.90;;;;;;5070850;28;20448;-71
2022/03/17 08:33:12;;;;;;;34.87;26.30;;;11.60;99.90;;;;;;5070799;28;20468;-71
2022/03/17 08:35:58;;;;;;;40.70;26.07;;;11.60;99.90;;;;;;5070487;28;20519;-71
2022/03/17 08:38:44;;;;;;;31.37;24.23;;;11.60;99.90;;;;;;5063817;28;20436;-71
2022/03/17 08:41:30;;;;;;;34.47;25.90;;;11.60;99.90;;;;;;5067211;28;20523;-71
2022/03/17 08:44:15;;;;;;;35.53;27.37;;;11.70;99.90;;;;;;5062370;28;20440;-71
2022/03/17 08:50:07;;;;;;;30.27;24.87;;;11.70;99.90;;;;;;5062328;28;20437;-72
2022/03/17 08:52:53;;;;;;;35.60;24.50;;;11.80;99.90;;;;;;5066669;28;20438;-72
2022/03/17 08:55:39;;;;;;;33.80;24.47;;;11.80;99.90;;;;;;5070294;28;20460;-72
2022/03/17 08:58:25;;;;;;;29.83;24.80;;;11.80;99.90;;;;;;5063184;28;20507;-72
2022/03/17 09:01:11;;;;;;;32.33;24.37;;;11.90;99.90;;;;;;5071125;28;20471;-72
2022/03/17 09:03:58;;;;;;;32.40;24.47;;;11.90;99.90;;;;;;5068517;28;20416;-71
2022/03/17 09:06:44;;;;;;;32.33;24.73;;;11.90;99.90;;;;;;5065509;28;20429;-71
2022/03/17 09:09:31;;;;;;;33.00;25.10;;;12.00;99.90;;;;;;5063757;28;20992;-72
2022/03/17 09:12:18;;;;;;;31.10;23.17;;;12.00;99.90;;;;;;5064882;28;20498;-72
2022/03/17 09:15:04;;;;;;;35.33;24.90;;;12.00;99.20;;;;;;5066093;28;20411;-71
2022/03/17 09:17:50;;;;;;;32.13;24.07;;;12.10;99.70;;;;;;5062943;28;20616;-71
2022/03/17 09:20:37;;;;;;;32.70;25.23;;;12.10;99.10;;;;;;5061074;28;21059;-71
2022/03/17 09:23:22;;;;;;;30.33;24.47;;;12.10;98.30;;;;;;5065799;28;20478;-71
2022/03/17 09:26:08;;;;;;;35.00;27.47;;;12.20;96.50;;;;;;5071148;28;20800;-72
2022/03/17 09:28:54;;;;;;;32.50;24.60;;;12.30;96.10;;;;;;5063764;28;20524;-71
2022/03/17 09:31:39;;;;;;;32.33;24.30;;;12.20;96.10;;;;;;5059419;28;20487;-71
2022/03/17 09:34:25;;;;;;;34.10;26.10;;;12.20;96.80;;;;;;5059721;28;20993;-71
2022/03/17 09:37:12;;;;;;;31.70;24.87;;;12.30;95.30;;;;;;5058724;28;20852;-71
2022/03/17 09:39:58;;;;;;;31.77;24.90;;;12.30;95.20;;;;;;5065753;28;20577;-71
2022/03/17 09:42:44;;;;;;;33.07;25.80;;;12.30;95.60;;;;;;5064380;28;20420;-71
2022/03/17 09:45:30;;;;;;;33.17;23.97;;;12.30;95.60;;;;;;5061526;28;20417;-72
2022/03/17 09:48:16;;;;;;;30.90;23.60;;;12.40;93.50;;;;;;5065484;28;20415;-71
2022/03/17 09:51:02;;;;;;;32.87;24.57;;;12.40;92.40;;;;;;5064897;28;20449;-71
2022/03/17 09:53:53;;;;;;;36.03;24.17;;;12.40;92.90;;;;;;5065110;28;21178;-71
2022/03/17 09:56:38;;;;;;;30.03;22.93;;;12.40;91.70;;;;;;5058909;28;20810;-72
2022/03/17 09:59:24;;;;;;;28.60;22.37;;;12.50;91.20;;;;;;5063126;28;20830;-71
2022/03/17 10:02:13;;;;;;;29.57;24.73;;;12.50;91.30;;;;;;5066292;28;20462;-71
2022/03/17 10:04:58;;;;;;;34.13;25.23;;;12.60;91.20;;;;;;5061932;28;20443;-71
2022/03/17 10:07:47;;;;;;;33.33;24.33;;;12.60;90.60;;;;;;5059204;28;20428;-71
2022/03/17 10:10:41;;;;;;;33.23;23.47;;;12.70;89.30;;;;;;5065528;28;20445;-71
2022/03/17 10:13:28;;;;;;;31.63;23.40;;;12.60;90.60;;;;;;5063154;28;20763;-71
2022/03/17 10:16:18;;;;;;;35.13;25.00;;;12.70;90.10;;;;;;5061688;28;20486;-70
2022/03/17 10:19:05;;;;;;;86.57;30.00;;;12.70;90.50;;;;;;5065088;28;20420;-70
2022/03/17 10:21:50;;;;;;;86.30;27.60;;;12.70;90.50;;;;;;5062861;28;20457;-70
2022/03/17 10:24:36;;;;;;;31.30;22.20;;;12.80;90.80;;;;;;5065113;28;20771;-72
2022/03/17 10:27:40;;;;;;;31.00;24.90;;;12.90;90.40;;;;;;5057393;28;20533;-73
2022/03/17 10:30:27;;;;;;;33.03;24.20;;;13.00;90.60;;;;;;5057512;28;20448;-73
2022/03/17 10:33:21;;;;;;;30.70;24.27;;;13.10;89.50;;;;;;5064321;28;20425;-72
2022/03/17 10:36:15;;;;;;;30.33;22.53;;;13.20;90.20;;;;;;5061973;28;20469;-72
2022/03/17 10:39:08;;;;;;;30.90;23.27;;;13.20;88.70;;;;;;5060127;28;20562;-72
2022/03/17 10:41:54;;;;;;;29.80;22.40;;;13.20;86.20;;;;;;5061446;28;20444;-72
2022/03/17 10:44:42;;;;;;;31.53;23.57;;;13.30;88.50;;;;;;5060677;28;20867;-72
2022/03/17 10:47:30;;;;;;;31.73;23.47;;;13.50;89.40;;;;;;5064589;28;20770;-73
2022/03/17 10:50:17;;;;;;;31.40;24.17;;;13.60;85.00;;;;;;5064748;28;20420;-72
2022/03/17 10:53:03;;;;;;;31.33;25.00;;;13.50;83.70;;;;;;5071511;28;20443;-73
2022/03/17 10:55:49;;;;;;;33.17;26.27;;;13.50;84.60;;;;;;5064444;28;20544;-71
2022/03/17 10:58:42;;;;;;;34.10;25.20;;;13.50;84.20;;;;;;5068618;28;20463;-71
2022/03/17 11:01:40;;;;;;;33.60;25.87;;;13.40;85.30;;;;;;5069418;28;20443;-70
2022/03/17 11:04:26;;;;;;;31.33;24.27;;;13.40;83.70;;;;;;5071160;28;20459;-70
2022/03/17 11:07:14;;;;;;;34.17;25.20;;;13.30;84.20;;;;;;5058371;28;20430;-70
2022/03/17 11:10:05;;;;;;;31.10;23.43;;;13.30;85.10;;;;;;5063896;28;20410;-71
2022/03/17 11:12:51;;;;;;;29.93;23.63;;;13.20;85.70;;;;;;5063465;28;20795;-72
2022/03/17 11:15:39;;;;;;;32.13;24.77;;;13.00;84.40;;;;;;5063651;28;20417;-72
2022/03/17 11:18:27;;;;;;;32.63;24.90;;;13.10;85.00;;;;;;5066327;28;20459;-72
2022/03/17 11:21:14;;;;;;;37.80;25.70;;;13.00;84.80;;;;;;5068416;28;20535;-72
2022/03/17 11:24:04;;;;;;;36.40;25.50;;;12.90;87.10;;;;;;5064480;28;20524;-70
2022/03/17 11:26:51;;;;;;;35.30;26.27;;;12.80;88.80;;;;;;5060779;28;20444;-70
2022/03/17 11:29:44;;;;;;;39.47;27.83;;;12.70;90.80;;;;;;5066013;28;20416;-70
2022/03/17 11:32:31;;;;;;;35.80;27.40;;;12.50;92.10;;;;;;5062434;28;20471;-70
2022/03/17 11:35:20;;;;;;;33.23;27.10;;;12.40;92.80;;;;;;5064565;28;20793;-70
2022/03/17 11:38:16;;;;;;;37.40;26.73;;;12.50;93.50;;;;;;5067059;28;20576;-70
2022/03/17 11:41:12;;;;;;;32.60;25.53;;;12.50;92.40;;;;;;5068203;28;20462;-70
2022/03/17 11:44:04;;;;;;;36.60;27.83;;;12.40;91.50;;;;;;5064419;28;20421;-69
2022/03/17 11:46:50;;;;;;;39.37;28.50;;;12.40;92.10;;;;;;5064899;28;20965;-70
2022/03/17 11:49:46;;;;;;;36.30;28.43;;;12.50;91.50;;;;;;5066647;28;20494;-71
2022/03/17 11:52:33;;;;;;;34.47;27.90;;;12.40;91.10;;;;;;5064413;28;20429;-70
2022/03/17 11:55:33;;;;;;;35.80;28.03;;;12.40;91.90;;;;;;5064340;28;20462;-70
2022/03/17 11:58:42;;;;;;;34.03;26.43;;;12.50;91.10;;;;;;5070004;28;20486;-70
2022/03/17 14:35:55;;;;;;;43.27;24.80;;;10.90;99.90;;;;;;5071199;27;20565;-73
2022/03/17 14:38:42;;;;;;;38.23;24.10;;;11.00;99.90;;;;;;5065111;28;20552;-73
2022/03/17 14:41:29;;;;;;;43.57;26.10;;;11.00;99.90;;;;;;5058591;28;20437;-73
2022/03/17 14:44:14;;;;;;;41.50;26.20;;;11.00;99.90;;;;;;5057829;28;20520;-73
2022/03/17 14:47:00;;;;;;;43.33;26.93;;;11.10;99.90;;;;;;5056749;28;20453;-73
2022/03/17 14:49:46;;;;;;;43.07;26.77;;;11.10;99.90;;;;;;5057656;28;21261;-73
2022/03/17 14:52:32;;;;;;;42.47;28.67;;;11.20;99.90;;;;;;5064434;28;20385;-73
2022/03/17 14:55:18;;;;;;;43.70;31.67;;;11.20;99.90;;;;;;5062987;28;20457;-73
2022/03/17 14:58:04;;;;;;;41.80;32.53;;;11.30;99.90;;;;;;5056210;28;20803;-73
2022/03/17 15:00:50;;;;;;;48.00;32.97;;;11.20;99.90;;;;;;5050464;28;20510;-73
2022/03/17 15:03:36;;;;;;;46.77;30.70;;;11.30;99.90;;;;;;5056735;28;20444;-73
2022/03/17 15:06:23;;;;;;;42.07;31.50;;;11.30;99.90;;;;;;5055442;28;20456;-73
2022/03/17 15:09:10;;;;;;;42.60;30.10;;;11.30;99.90;;;;;;5058910;28;20500;-73
2022/03/17 15:11:56;;;;;;;44.33;29.80;;;11.30;99.90;;;;;;5055820;28;20982;-73
2022/03/17 15:14:42;;;;;;;34.93;25.00;;;11.40;99.90;;;;;;5055993;28;20825;-73
2022/03/17 15:17:27;;;;;;;27.13;19.60;;;11.40;99.90;;;;;;5060344;28;20409;-73
2022/03/17 15:20:13;;;;;;;22.20;15.73;;;11.30;99.90;;;;;;5055935;28;20441;-73
2022/03/17 15:22:59;;;;;;;26.20;17.53;;;11.20;99.90;;;;;;5059537;28;20809;-73
2022/03/17 15:25:46;;;;;;;20.30;14.27;;;11.30;99.90;;;;;;5051173;28;20447;-73
2022/03/17 15:31:35;;;;;;;18.23;12.90;;;11.30;99.90;;;;;;5056670;28;20505;-73
2022/03/17 15:34:21;;;;;;;18.50;12.07;;;11.20;99.90;;;;;;5056474;28;20477;-73
2022/03/17 15:37:06;;;;;;;24.03;13.97;;;11.20;99.90;;;;;;5057071;28;20467;-73
2022/03/17 15:39:52;;;;;;;18.40;12.10;;;11.20;99.90;;;;;;5052103;28;20485;-73
2022/03/17 15:42:42;;;;;;;19.40;12.70;;;11.20;99.90;;;;;;5055672;28;20569;-73
2022/03/17 15:45:28;;;;;;;16.90;11.50;;;11.10;99.90;;;;;;5053536;28;20427;-73
2022/03/17 15:48:14;;;;;;;19.43;13.30;;;11.10;99.90;;;;;;5046662;28;20410;-73
2022/03/17 15:51:00;;;;;;;18.97;14.27;;;11.10;99.90;;;;;;5049044;28;20572;-73
2022/03/17 15:53:46;;;;;;;19.33;13.03;;;11.00;99.90;;;;;;5042407;28;20418;-73
2022/03/17 15:56:31;;;;;;;20.90;14.50;;;11.10;99.90;;;;;;5049598;28;20530;-73
2022/03/17 15:59:18;;;;;;;29.97;19.73;;;11.10;99.90;;;;;;5045083;28;20578;-73
2022/03/17 16:02:06;;;;;;;19.07;12.80;;;11.10;99.90;;;;;;5052443;28;20519;-73
2022/03/17 16:04:51;;;;;;;15.67;11.33;;;11.10;99.90;;;;;;5046670;28;20947;-73
2022/03/17 16:07:37;;;;;;;27.27;18.30;;;11.00;99.90;;;;;;5045786;28;20813;-73
2022/03/17 16:16:32;;;;;;;28.50;19.40;;;11.00;99.90;;;;;;5045167;28;20469;-73
2022/03/17 16:19:19;;;;;;;19.00;13.00;;;11.00;99.90;;;;;;5042607;28;20557;-73
2022/03/17 16:22:05;;;;;;;18.03;11.63;;;10.90;99.90;;;;;;5048117;28;20409;-73
2022/03/17 16:24:51;;;;;;;14.90;11.80;;;10.90;99.90;;;;;;5047220;28;20443;-73
2022/03/17 16:27:38;;;;;;;13.23;10.70;;;10.80;99.90;;;;;;5046838;28;20538;-71
2022/03/17 16:30:24;;;;;;;14.37;10.27;;;10.80;99.90;;;;;;5038507;28;20469;-71
2022/03/17 16:33:12;;;;;;;16.37;12.70;;;10.90;99.90;;;;;;5047128;28;20492;-71
2022/03/17 16:35:57;;;;;;;20.80;14.90;;;10.80;99.90;;;;;;5041055;28;20493;-71
2022/03/17 16:38:43;;;;;;;18.07;13.10;;;10.80;99.90;;;;;;5045311;28;20459;-71
2022/03/17 16:41:29;;;;;;;15.13;11.90;;;10.90;99.90;;;;;;5046051;28;20463;-71
2022/03/17 16:44:15;;;;;;;25.40;14.77;;;10.90;99.90;;;;;;5044687;28;20418;-71
2022/03/17 16:47:01;;;;;;;15.40;12.53;;;10.80;99.90;;;;;;5042573;28;20501;-71
2022/03/17 16:49:48;;;;;;;19.57;12.20;;;10.70;99.90;;;;;;5041448;28;20406;-71
2022/03/17 16:52:35;;;;;;;22.73;16.73;;;10.70;99.90;;;;;;5047615;28;21041;-71
2022/03/17 16:55:22;;;;;;;17.93;13.13;;;10.70;99.90;;;;;;5040971;28;20466;-71
2022/03/17 16:58:08;;;;;;;22.93;14.23;;;10.70;99.90;;;;;;5035197;28;20444;-71
2022/03/17 17:00:54;;;;;;;21.80;14.90;;;10.60;99.90;;;;;;5041291;28;20441;-71
2022/03/17 17:03:40;;;;;;;20.00;13.20;;;10.70;99.90;;;;;;5045541;28;20424;-71
2022/03/17 17:06:28;;;;;;;16.20;12.63;;;10.70;99.90;;;;;;5039885;28;20617;-71